Accueil
METAR-TAF:

METAR-TAF

Aéroports :

Aéroport de Perpignan-Rivesaltes

Perpignan, France

latitude: 42-44N, longitude: 002-52E, altitude: 43 m

Observation

Le bulletin a été fait il y a 15 minutes, à 05:00 UTC
Vent 5 kt de sud-ouest
Température 9°C
Humidité 53%
Pression 1027 hPa
Visibilité 10 km ou plus
pas de nuages en-dessous de 1500 mètres et pas de cumulonimbus.

METAR: LFMP 230500Z AUTO 23005KT CAVOK 09/00 Q1027 NOSIG

Heure: 06:15 (05:15 UTC)

Prévision

Le bulletin a été fait il y a 3 heures et 15 minutes, à 02:00 UTC
Prévision valable du 23 à 03 UTC au 24 à 03 UTC
Vent 4 kt de sud-ouest
Visibilité 10 km ou plus
pas de nuages en-dessous de 1500 mètres et pas de cumulonimbus.
Temporairement
du 23 à 12 UTC au 23 à 18 UTC
Vent 10 kt de nord-est

TAF: LFMP 230200Z 2303/2403 22004KT CAVOK TEMPO 2312/2318 04010KT

Observations et prévisions météorologiques de plus de 4000 aéroports (messages METAR et TAF).

Les stations disponibles sont représentées par des disques jaunes et rouges sur la carte.

Passer la souris dessus pour voir le nom de la station.

Cliquer dessus pour voir les observations et prévisions météorologiques.

Pour changer de carte: cliquez sur les boutons verts avec une croix noire pour zoomer, sur le bouton vert avec un tiret pour effectuer un zoom arrière, ou sur les flèches vertes pour les cartes adjacentes.


METAR-TAF: